Time;durP1;ratioP1;P1;durP2;ratioP2;P2;SDS_P1;SDS_P2;PMS_P1;PMS_P2;Temp;Humidity;BMP_temperature;BMP_pressure;BME280_temperature;BME280_humidity;BME280_pressure;Samples;Min_cycle;Max_cycle;Signal;HPM_P1;HPM_P2
2021/12/17 00:07:25;;;;;;;11.50;2.63;;;;;;;4.79;94.62;101824.13;5037918;28;20104;-52
2021/12/17 00:09:52;;;;;;;8.90;2.50;;;;;;;4.78;94.37;101822.38;5042503;28;20030;-51
2021/12/17 00:12:21;;;;;;;11.32;2.60;;;;;;;4.77;94.70;101825.84;5034495;28;20033;-54
2021/12/17 00:14:49;;;;;;;9.90;1.98;;;;;;;4.72;95.12;101822.25;5034359;28;20029;-51
2021/12/17 00:17:20;;;;;;;11.85;3.13;;;;;;;4.69;95.24;101808.28;5034344;28;20037;-52
2021/12/17 00:50:26;;;;;;;13.38;2.50;;;;;;;4.47;97.44;101831.13;5048021;28;20507;-50
2021/12/17 00:52:49;;;;;;;11.77;2.65;;;;;;;4.47;97.34;101825.91;5040998;28;20114;-50
2021/12/17 00:55:14;;;;;;;8.95;2.17;;;;;;;4.48;96.90;101832.91;5033733;28;20411;-51
2021/12/17 00:57:42;;;;;;;9.80;2.03;;;;;;;4.44;97.30;101827.59;5033549;28;20036;-48
2021/12/17 01:00:16;;;;;;;11.02;2.50;;;;;;;4.40;97.51;101833.56;5036878;28;20041;-50
2021/12/17 01:02:43;;;;;;;12.02;2.55;;;;;;;4.34;98.36;101835.13;5042659;28;20033;-54
2021/12/17 01:05:16;;;;;;;13.15;2.20;;;;;;;4.33;98.20;101838.56;5034785;28;20033;-50
2021/12/17 01:07:44;;;;;;;11.15;1.70;;;;;;;4.29;98.44;101839.31;5033553;28;20491;-52
2021/12/17 01:10:17;;;;;;;8.90;1.98;;;;;;;4.29;98.97;101836.72;5032249;28;20143;-49
2021/12/17 01:12:42;;;;;;;10.52;1.73;;;;;;;4.33;98.74;101854.19;5032077;28;20381;-51
2021/12/17 01:15:11;;;;;;;12.77;2.40;;;;;;;4.30;99.18;101859.28;5033608;28;20041;-51
2021/12/17 01:17:40;;;;;;;11.30;2.30;;;;;;;4.32;99.21;101857.63;5032351;28;20026;-50
2021/12/17 01:22:56;;;;;;;10.70;2.67;;;;;;;4.30;99.02;101854.97;5032188;28;20115;-50
2021/12/17 01:36:30;;;;;;;13.75;2.38;;;;;;;4.08;100.00;101850.03;5033315;28;20123;-53
2021/12/17 01:44:09;;;;;;;13.75;3.17;;;;;;;4.03;100.00;101849.00;5032604;28;20045;-50
2021/12/17 01:46:36;;;;;;;9.85;3.08;;;;;;;3.97;100.00;101848.84;5032806;28;20116;-50
2021/12/17 02:00:08;;;;;;;12.82;2.58;;;;;;;3.93;100.00;101845.25;5033025;28;20493;-49
2021/12/17 02:02:42;;;;;;;13.13;2.55;;;;;;;3.87;100.00;101843.38;5033221;28;20033;-53
2021/12/17 02:05:09;;;;;;;11.50;2.80;;;;;;;3.83;100.00;101845.81;5016343;28;20119;-50
2021/12/17 02:07:35;;;;;;;12.65;2.65;;;;;;;3.77;100.00;101830.94;5034725;28;20033;-52
2021/12/17 02:29:00;;;;;;;12.73;2.85;;;;;;;3.53;100.00;101809.44;5036392;28;20061;-51
2021/12/17 02:31:29;;;;;;;12.35;2.35;;;;;;;3.44;100.00;101816.09;5036341;28;20021;-53
2021/12/17 02:33:59;;;;;;;15.27;2.38;;;;;;;3.40;100.00;101802.97;5036935;28;20144;-50
2021/12/17 02:36:28;;;;;;;11.45;2.15;;;;;;;3.39;100.00;101811.59;5038437;28;20069;-53
2021/12/17 02:47:08;;;;;;;10.02;2.47;;;;;;;3.46;100.00;101805.75;5036827;28;20102;-48
2021/12/17 02:49:34;;;;;;;11.65;2.50;;;;;;;3.48;100.00;101806.69;5036414;28;20428;-52
2021/12/17 02:52:04;;;;;;;12.20;2.58;;;;;;;3.51;100.00;101795.50;5050436;28;20033;-49
2021/12/17 02:54:30;;;;;;;10.73;2.47;;;;;;;3.48;100.00;101804.09;5036982;28;20064;-50
2021/12/17 02:56:56;;;;;;;11.95;2.60;;;;;;;3.50;100.00;101802.41;5036056;28;20500;-50
2021/12/17 02:59:22;;;;;;;10.82;1.88;;;;;;;3.52;100.00;101815.47;5026114;28;20040;-50
2021/12/17 03:01:49;;;;;;;12.10;2.20;;;;;;;3.54;100.00;101816.38;5037913;28;20036;-50
2021/12/17 03:04:17;;;;;;;8.90;2.45;;;;;;;3.55;100.00;101821.63;5054359;28;20082;-49
2021/12/17 03:06:43;;;;;;;9.60;2.38;;;;;;;3.58;100.00;101806.09;5051152;28;20033;-49
2021/12/17 03:09:09;;;;;;;11.02;2.05;;;;;;;3.52;100.00;101825.84;5054178;28;20036;-48
2021/12/17 03:11:35;;;;;;;11.13;2.63;;;;;;;3.51;100.00;101822.38;5055647;28;20484;-48
2021/12/17 03:14:00;;;;;;;10.75;2.50;;;;;;;3.54;100.00;101822.44;5037154;28;20049;-49
2021/12/17 03:24:04;;;;;;;11.75;2.47;;;;;;;3.53;100.00;101833.69;5040826;28;20389;-50
2021/12/17 03:26:30;;;;;;;10.52;2.05;;;;;;;3.56;100.00;101820.78;5049583;28;20040;-49
2021/12/17 03:29:02;;;;;;;13.30;2.55;;;;;;;3.56;100.00;101819.91;5047637;28;20534;-50
2021/12/17 03:31:29;;;;;;;12.75;2.08;;;;;;;3.57;100.00;101817.34;5038140;28;20032;-48
2021/12/17 03:34:03;;;;;;;12.98;2.63;;;;;;;3.52;100.00;101811.16;5037161;28;20132;-50
2021/12/17 03:36:29;;;;;;;14.80;2.40;;;;;;;3.48;100.00;101811.00;5055411;28;20068;-49
2021/12/17 03:38:54;;;;;;;8.93;1.75;;;;;;;3.50;100.00;101811.91;5040494;28;20044;-50
2021/12/17 03:41:28;;;;;;;10.80;2.30;;;;;;;3.51;100.00;101827.59;5035197;28;20075;-51
2021/12/17 03:43:55;;;;;;;11.10;2.17;;;;;;;3.48;100.00;101822.28;5036352;28;20046;-48
2021/12/17 03:46:21;;;;;;;14.40;2.53;;;;;;;3.46;100.00;101823.94;5053536;28;20077;-51
2021/12/17 03:48:47;;;;;;;12.20;2.33;;;;;;;3.52;100.00;101807.66;5037057;28;20095;-50
2021/12/17 03:51:16;;;;;;;10.10;2.15;;;;;;;3.53;100.00;101820.69;5043452;28;20428;-51
2021/12/17 03:53:47;;;;;;;10.27;2.05;;;;;;;3.52;100.00;101824.13;5036783;28;20036;-50
2021/12/17 03:56:12;;;;;;;11.70;2.30;;;;;;;3.58;100.00;101811.31;5053616;28;20037;-48
2021/12/17 03:58:38;;;;;;;11.98;2.35;;;;;;;3.58;100.00;101813.03;5034733;28;20037;-49
2021/12/17 04:01:05;;;;;;;11.30;2.60;;;;;;;3.63;100.00;101816.63;5033320;28;20397;-49
2021/12/17 04:03:31;;;;;;;10.55;2.25;;;;;;;3.63;100.00;101821.84;5027059;28;20044;-51
2021/12/17 04:05:57;;;;;;;10.35;2.17;;;;;;;3.68;100.00;101815.97;5053346;28;20024;-49
2021/12/17 04:08:23;;;;;;;7.72;2.22;;;;;;;3.66;100.00;101817.63;5054567;28;20033;-51
2021/12/17 04:10:51;;;;;;;12.15;2.08;;;;;;;3.67;100.00;101819.41;5046920;28;20041;-49
2021/12/17 04:15:55;;;;;;;10.52;2.03;;;;;;;3.53;100.00;101817.22;5043987;28;20036;-53
2021/12/17 04:18:21;;;;;;;9.88;2.03;;;;;;;3.57;100.00;101821.66;5053888;28;20435;-50
2021/12/17 04:20:46;;;;;;;10.52;1.88;;;;;;;3.50;100.00;101823.19;5049004;28;20061;-52
2021/12/17 04:23:11;;;;;;;17.38;2.40;;;;;;;3.54;100.00;101819.84;5053820;28;20037;-52
2021/12/17 04:25:37;;;;;;;7.70;1.80;;;;;;;3.54;100.00;101822.44;5050657;28;20116;-53
2021/12/17 04:28:03;;;;;;;12.50;2.60;;;;;;;3.46;100.00;101818.75;5044653;28;20041;-49
2021/12/17 04:30:29;;;;;;;8.20;2.08;;;;;;;3.45;100.00;101832.56;5034073;28;20026;-52
2021/12/17 04:32:54;;;;;;;10.15;2.72;;;;;;;3.44;100.00;101825.63;5034114;28;20397;-52
2021/12/17 04:35:21;;;;;;;13.57;3.42;;;;;;;3.44;100.00;101838.63;5053013;28;20047;-52
2021/12/17 04:37:46;;;;;;;13.45;3.85;;;;;;;3.43;100.00;101842.03;5052913;28;20025;-51
2021/12/17 04:40:12;;;;;;;11.85;3.92;;;;;;;3.45;100.00;101843.84;5042672;28;20037;-49
2021/12/17 04:42:52;;;;;;;14.48;3.90;;;;;;;3.48;100.00;101839.59;5032691;28;20112;-50
2021/12/17 04:45:19;;;;;;;11.15;2.65;;;;;;;3.49;100.00;101844.81;5046436;28;20033;-52
2021/12/17 04:58:41;;;;;;;13.38;3.50;;;;;;;3.32;100.00;101853.84;5039865;28;20189;-49
2021/12/17 05:01:12;;;;;;;15.07;3.50;;;;;;;3.28;100.00;101859.75;5034733;28;20469;-49
2021/12/17 05:03:37;;;;;;;12.07;3.22;;;;;;;3.25;100.00;101851.88;5037340;28;20143;-50
2021/12/17 05:06:03;;;;;;;14.02;3.80;;;;;;;3.28;100.00;101859.75;5052942;28;20064;-53
2021/12/17 05:08:29;;;;;;;11.13;3.17;;;;;;;3.26;100.00;101857.09;5047629;28;20041;-49
2021/12/17 05:21:34;;;;;;;18.55;5.28;;;;;;;3.17;100.00;101844.72;5041221;28;20041;-50
2021/12/17 05:23:59;;;;;;;18.30;5.72;;;;;;;3.15;100.00;101840.28;5053631;28;20487;-47
2021/12/17 05:26:25;;;;;;;17.27;5.30;;;;;;;3.12;100.00;101835.91;5052910;28;20029;-48
2021/12/17 05:28:52;;;;;;;13.27;4.82;;;;;;;3.11;100.00;101823.75;5000236;28;20045;-50
2021/12/17 05:31:21;;;;;;;17.40;6.50;;;;;;;3.14;100.00;101831.63;5032122;28;20120;-48
2021/12/17 05:33:51;;;;;;;16.42;5.18;;;;;;;3.11;100.00;101826.34;5018552;28;20037;-50
2021/12/17 05:36:16;;;;;;;19.20;5.70;;;;;;;3.09;100.00;101835.78;5015644;28;20048;-47
2021/12/17 05:38:42;;;;;;;15.05;5.18;;;;;;;3.10;100.00;101832.34;5035347;28;20045;-48
2021/12/17 05:41:07;;;;;;;11.23;3.67;;;;;;;3.15;100.00;101827.31;5031748;28;20059;-49
2021/12/17 05:43:36;;;;;;;9.98;3.00;;;;;;;3.22;100.00;101830.13;5034677;28;20067;-50
2021/12/17 05:46:09;;;;;;;9.82;3.25;;;;;;;3.20;100.00;101831.81;5035264;28;20043;-51
2021/12/17 05:48:36;;;;;;;14.88;3.22;;;;;;;3.11;100.00;101841.94;5052715;28;20483;-48
2021/12/17 05:51:05;;;;;;;14.75;4.15;;;;;;;3.09;100.00;101843.59;5037824;28;20500;-49
2021/12/17 05:53:31;;;;;;;19.63;6.28;;;;;;;3.04;100.00;101839.09;5034835;28;20056;-50
2021/12/17 05:55:57;;;;;;;23.50;6.53;;;;;;;3.03;100.00;101835.59;5043021;28;20371;-51
2021/12/17 05:58:24;;;;;;;17.42;5.28;;;;;;;3.02;100.00;101835.53;5042398;28;20038;-50
2021/12/17 06:00:49;;;;;;;17.10;6.40;;;;;;;2.98;100.00;101829.38;5037727;28;20052;-52
2021/12/17 06:03:17;;;;;;;18.58;6.22;;;;;;;2.96;100.00;101829.31;5036689;28;20037;-49
2021/12/17 06:05:43;;;;;;;19.52;8.15;;;;;;;3.00;100.00;101837.22;5038169;28;20472;-52
2021/12/17 06:08:09;;;;;;;16.27;7.47;;;;;;;2.92;100.00;101839.56;5050555;28;20041;-48
2021/12/17 06:10:34;;;;;;;19.77;7.22;;;;;;;2.92;100.00;101844.75;5056566;28;20048;-50
2021/12/17 06:13:00;;;;;;;14.27;4.53;;;;;;;2.90;100.00;101839.50;5047053;28;20048;-48
2021/12/17 06:15:25;;;;;;;9.95;4.10;;;;;;;2.89;100.00;101844.66;5038702;28;20381;-49
2021/12/17 06:17:52;;;;;;;11.00;4.72;;;;;;;2.92;100.00;101835.25;5052392;28;20057;-49
2021/12/17 06:20:19;;;;;;;15.55;5.93;;;;;;;2.96;100.00;101841.44;5036665;28;20076;-52
2021/12/17 06:22:46;;;;;;;16.80;4.78;;;;;;;2.92;100.00;101836.97;5051869;28;20060;-51
2021/12/17 06:25:12;;;;;;;18.33;4.45;;;;;;;2.86;100.00;101848.03;5056457;28;20032;-49
2021/12/17 06:27:38;;;;;;;12.63;3.13;;;;;;;2.89;100.00;101852.44;5034425;28;20548;-50
2021/12/17 06:30:09;;;;;;;11.45;3.50;;;;;;;2.88;100.00;101868.84;5035385;28;20060;-50
2021/12/17 06:32:35;;;;;;;11.23;3.40;;;;;;;2.94;100.00;101869.03;5042789;28;20036;-49
2021/12/17 06:35:01;;;;;;;13.15;3.90;;;;;;;2.87;100.00;101861.88;5055828;28;20486;-48
2021/12/17 06:37:26;;;;;;;10.23;3.45;;;;;;;2.89;100.00;101878.41;5054867;28;20520;-51
2021/12/17 06:39:52;;;;;;;11.20;3.17;;;;;;;2.88;100.00;101879.25;5055988;28;20029;-50
2021/12/17 06:42:18;;;;;;;12.23;4.50;;;;;;;2.89;100.00;101886.19;5055777;28;20025;-52
2021/12/17 06:44:45;;;;;;;9.80;3.13;;;;;;;2.90;100.00;101880.16;5051723;28;20071;-50
2021/12/17 06:47:24;;;;;;;13.40;4.07;;;;;;;2.89;100.00;101879.28;5047102;28;20034;-52
2021/12/17 07:00:42;;;;;;;14.45;3.67;;;;;;;2.82;100.00;101879.03;5044715;28;20099;-50
2021/12/17 07:06:10;;;;;;;13.52;3.70;;;;;;;2.88;100.00;101892.22;5055839;28;20396;-49
2021/12/17 07:22:40;;;;;;;11.07;3.33;;;;;;;2.89;100.00;101891.38;5090421;28;20043;-51
2021/12/17 07:35:54;;;;;;;9.73;3.50;;;;;;;3.11;100.00;101887.78;5054892;28;20037;-52
2021/12/17 07:38:38;;;;;;;11.27;4.03;;;;;;;3.16;100.00;101889.72;5052154;28;20059;-50
2021/12/17 07:41:04;;;;;;;13.07;3.63;;;;;;;3.21;100.00;101900.25;5055002;28;20298;-52
2021/12/17 07:43:38;;;;;;;15.43;3.80;;;;;;;3.24;100.00;101896.88;5054920;28;20048;-48
2021/12/17 07:46:06;;;;;;;10.27;3.80;;;;;;;3.33;100.00;101902.34;5053251;28;20057;-51
2021/12/17 07:48:32;;;;;;;11.13;4.15;;;;;;;3.37;100.00;101906.81;5037912;28;20033;-52
2021/12/17 07:50:59;;;;;;;11.27;4.10;;;;;;;3.37;100.00;101910.28;5044253;28;20029;-51
2021/12/17 07:53:25;;;;;;;17.38;5.32;;;;;;;3.40;100.00;101912.13;5038094;28;20175;-49
2021/12/17 07:55:50;;;;;;;13.43;5.38;;;;;;;3.51;100.00;101913.34;5017197;28;20124;-49
2021/12/17 07:58:16;;;;;;;14.35;4.88;;;;;;;3.53;100.00;101921.19;5036460;28;20033;-50
2021/12/17 08:00:42;;;;;;;13.82;5.10;;;;;;;3.53;100.00;101919.47;5036407;28;20039;-49
2021/12/17 08:03:07;;;;;;;16.42;4.68;;;;;;;3.58;100.00;101922.19;5033940;28;20033;-51
2021/12/17 08:05:33;;;;;;;18.33;5.20;;;;;;;3.54;100.00;101920.34;5050377;28;20373;-50
2021/12/17 08:07:58;;;;;;;12.77;4.38;;;;;;;3.59;100.00;101913.56;5032206;28;20041;-50
2021/12/17 08:10:24;;;;;;;11.98;3.75;;;;;;;3.62;100.00;101909.34;5034244;28;20404;-51
2021/12/17 08:12:53;;;;;;;12.38;4.13;;;;;;;3.56;100.00;101922.16;5045947;28;20049;-54
2021/12/17 08:15:22;;;;;;;13.50;4.47;;;;;;;3.71;99.80;101932.16;5049623;28;20107;-51
2021/12/17 08:18:12;;;;;;;12.60;3.72;;;;;;;3.74;99.52;101931.34;5053034;28;20043;-52
2021/12/17 08:26:04;;;;;;;10.90;3.88;;;;;;;3.84;98.67;101923.91;5043394;28;20029;-51
2021/12/17 08:28:49;;;;;;;11.02;3.83;;;;;;;3.90;98.48;101930.97;5033774;28;20378;-50
2021/12/17 08:31:14;;;;;;;12.27;3.58;;;;;;;3.95;97.84;101925.09;5033884;28;20044;-50
2021/12/17 08:33:40;;;;;;;11.32;3.67;;;;;;;3.98;97.84;101934.69;5032825;28;20029;-49
2021/12/17 08:36:05;;;;;;;9.23;3.55;;;;;;;4.03;97.17;101935.75;5035304;28;20033;-54
2021/12/17 08:38:31;;;;;;;11.15;3.85;;;;;;;4.09;96.82;101943.72;5054215;28;20388;-51
2021/12/17 08:40:59;;;;;;;8.00;3.88;;;;;;;4.09;96.79;101948.91;5044562;28;20038;-52
2021/12/17 08:43:25;;;;;;;13.23;3.90;;;;;;;4.15;96.30;101946.50;5032957;28;20048;-51
2021/12/17 08:45:50;;;;;;;9.98;3.90;;;;;;;4.19;95.76;101945.75;5031495;28;20037;-53
2021/12/17 08:48:16;;;;;;;11.15;4.05;;;;;;;4.25;95.70;101942.44;5032256;28;20040;-53
2021/12/17 08:50:41;;;;;;;10.60;3.88;;;;;;;4.25;95.41;101944.16;5037151;28;20037;-54
2021/12/17 08:53:07;;;;;;;12.25;4.53;;;;;;;4.19;95.06;101945.75;5033320;28;20116;-49
2021/12/17 08:55:32;;;;;;;11.32;4.30;;;;;;;4.33;94.85;101934.84;5044084;28;20091;-50
2021/12/17 08:57:57;;;;;;;17.48;6.70;;;;;;;4.35;94.71;101936.69;5037397;28;20080;-50
2021/12/17 09:00:23;;;;;;;11.07;4.47;;;;;;;4.37;94.45;101934.09;5039970;28;20048;-52
2021/12/17 09:02:48;;;;;;;14.15;4.13;;;;;;;4.44;93.98;101920.44;5043971;28;20112;-51
2021/12/17 09:05:14;;;;;;;12.80;4.28;;;;;;;4.47;93.64;101927.41;5041774;28;20075;-48
2021/12/17 09:07:39;;;;;;;12.48;4.55;;;;;;;4.43;93.59;101931.69;5042483;28;20033;-49
2021/12/17 09:10:06;;;;;;;9.77;3.67;;;;;;;4.55;92.95;101937.25;5035435;28;20065;-50
2021/12/17 09:12:32;;;;;;;9.85;4.13;;;;;;;4.60;92.36;101942.56;5037629;28;20034;-53
2021/12/17 09:14:58;;;;;;;13.85;7.28;;;;;;;4.67;92.34;101937.56;5046708;28;20045;-50
2021/12/17 09:17:24;;;;;;;10.65;5.43;;;;;;;4.72;91.84;101926.41;5052961;28;20025;-50
2021/12/17 09:19:51;;;;;;;15.77;5.55;;;;;;;4.76;91.59;101930.84;5049057;28;20037;-50
2021/12/17 09:22:16;;;;;;;15.27;5.03;;;;;;;4.83;91.25;101938.00;5035629;28;20071;-49
2021/12/17 09:24:42;;;;;;;13.68;5.20;;;;;;;4.87;90.70;101929.41;5033545;28;20061;-49
2021/12/17 09:27:07;;;;;;;16.52;6.80;;;;;;;4.90;90.31;101932.06;5018468;28;20037;-53
2021/12/17 09:29:33;;;;;;;13.57;6.10;;;;;;;5.04;89.91;101928.13;5037945;28;20461;-52
2021/12/17 09:31:58;;;;;;;17.40;6.18;;;;;;;5.04;89.41;101935.06;5022082;28;20029;-53
2021/12/17 09:34:24;;;;;;;12.40;5.28;;;;;;;5.05;88.49;101931.59;5036171;28;20060;-53
2021/12/17 09:36:49;;;;;;;11.27;5.05;;;;;;;5.13;88.04;101937.88;5037488;28;20056;-52
2021/12/17 09:39:17;;;;;;;9.38;3.50;;;;;;;5.14;87.27;101937.91;5034559;28;20037;-52
2021/12/17 09:41:43;;;;;;;7.07;3.30;;;;;;;5.21;86.56;101940.69;5038449;28;20029;-49
2021/12/17 09:44:14;;;;;;;8.80;3.40;;;;;;;5.30;85.90;101939.19;5050847;28;20037;-53
2021/12/17 09:46:43;;;;;;;9.00;2.90;;;;;;;5.43;85.12;101943.00;5053638;28;20041;-48
2021/12/17 09:49:10;;;;;;;5.53;2.70;;;;;;;5.48;84.64;101949.19;5037261;28;20124;-53
2021/12/17 09:51:35;;;;;;;7.80;2.47;;;;;;;5.48;84.09;101948.31;5035949;28;20107;-50
2021/12/17 09:54:01;;;;;;;9.23;3.28;;;;;;;5.47;83.38;101962.19;5037312;28;20358;-53
2021/12/17 09:56:27;;;;;;;6.65;3.10;;;;;;;5.53;83.59;101949.28;5036931;28;20496;-52
2021/12/17 09:58:53;;;;;;;7.95;3.50;;;;;;;5.59;82.91;101957.28;5035935;28;20044;-52
2021/12/17 10:01:19;;;;;;;7.00;2.88;;;;;;;5.60;82.81;101943.38;5035930;28;20045;-52
2021/12/17 10:03:45;;;;;;;8.02;3.08;;;;;;;5.60;82.56;101948.59;5052979;28;20056;-52
2021/12/17 10:06:23;;;;;;;10.07;4.90;;;;;;;5.65;81.86;101936.53;5044137;28;20487;-51
2021/12/17 10:08:49;;;;;;;9.27;3.75;;;;;;;5.76;81.64;101944.63;5040635;28;20420;-49
2021/12/17 10:11:16;;;;;;;5.88;2.65;;;;;;;5.68;81.32;101952.28;5036802;28;20034;-49
2021/12/17 10:13:42;;;;;;;4.75;1.83;;;;;;;5.74;80.87;101960.22;5036280;28;20045;-53
2021/12/17 10:16:10;;;;;;;6.05;2.20;;;;;;;5.77;80.74;101972.47;5053135;28;20112;-52
2021/12/17 10:18:46;;;;;;;7.32;2.10;;;;;;;5.76;79.89;101949.84;5040848;28;20033;-52
2021/12/17 10:21:19;;;;;;;6.35;1.60;;;;;;;5.81;79.88;101956.91;5054148;28;20057;-51
2021/12/17 10:23:45;;;;;;;7.20;2.08;;;;;;;5.98;79.79;101949.50;5050498;28;20120;-50
2021/12/17 10:26:21;;;;;;;4.13;1.60;;;;;;;6.02;79.23;101942.63;5075552;28;20079;-51
2021/12/17 10:28:57;;;;;;;8.65;2.08;;;;;;;5.94;79.08;101945.06;5076601;28;20061;-50
2021/12/17 10:31:24;;;;;;;4.65;1.55;;;;;;;5.96;79.04;101929.44;5075252;28;20090;-50
2021/12/17 10:33:52;;;;;;;6.60;2.50;;;;;;;6.00;78.69;101932.16;5075021;28;20210;-48
2021/12/17 10:36:30;;;;;;;8.43;2.67;;;;;;;6.07;78.14;101931.44;5066719;28;20029;-52
2021/12/17 10:38:55;;;;;;;8.75;3.50;;;;;;;6.07;78.31;101931.44;5054110;28;20029;-49
2021/12/17 10:41:25;;;;;;;8.43;3.90;;;;;;;6.03;78.16;101920.91;5056225;28;20029;-52
2021/12/17 10:43:57;;;;;;;9.73;3.45;;;;;;;6.03;78.37;101913.97;5056360;28;20029;-49
2021/12/17 10:46:27;;;;;;;11.35;3.03;;;;;;;6.00;78.29;101926.94;5056275;28;20029;-53
2021/12/17 10:48:57;;;;;;;7.85;2.78;;;;;;;6.01;78.05;101917.38;5056049;28;20043;-51
2021/12/17 10:54:28;;;;;;;8.13;2.40;;;;;;;6.11;77.09;101916.75;5062340;28;20046;-51
2021/12/17 10:56:55;;;;;;;11.80;4.63;;;;;;;6.17;77.30;101922.94;5075887;28;20028;-51
2021/12/17 10:59:32;;;;;;;12.65;4.78;;;;;;;6.27;76.97;101923.16;5071908;28;20041;-51
2021/12/17 11:02:04;;;;;;;10.80;2.92;;;;;;;6.23;76.74;101922.22;5054112;28;20111;-52
2021/12/17 11:04:36;;;;;;;5.47;1.85;;;;;;;6.28;76.29;101931.00;5056023;28;20040;-50
2021/12/17 11:07:07;;;;;;;4.95;1.73;;;;;;;6.23;76.47;101923.94;5038217;28;20036;-50
2021/12/17 11:09:57;;;;;;;8.25;3.85;;;;;;;6.23;76.16;101929.16;5055741;28;20456;-50
2021/12/17 11:12:24;;;;;;;5.95;1.40;;;;;;;6.21;76.67;101921.28;5055452;28;20024;-51
2021/12/17 11:14:50;;;;;;;7.63;2.65;;;;;;;6.34;76.59;101920.72;5055587;28;20032;-50
2021/12/17 11:17:20;;;;;;;3.97;1.30;;;;;;;6.21;76.49;101917.78;5054349;28;20056;-52
2021/12/17 11:19:50;;;;;;;4.50;1.80;;;;;;;6.35;76.15;101906.78;5055574;28;20032;-48
2021/12/17 11:22:17;;;;;;;5.47;1.58;;;;;;;6.23;76.22;101910.91;5055483;28;20038;-51
2021/12/17 11:24:43;;;;;;;4.78;1.30;;;;;;;6.36;76.40;101915.50;5049192;28;20040;-48
2021/12/17 11:27:09;;;;;;;3.38;1.20;;;;;;;6.25;76.61;101906.56;5044367;28;20033;-50
2021/12/17 11:29:35;;;;;;;4.53;1.40;;;;;;;6.20;76.49;101916.91;5034618;28;20120;-49
2021/12/17 11:32:04;;;;;;;4.25;1.60;;;;;;;6.34;76.35;101910.25;5051481;28;20044;-52
2021/12/17 11:34:32;;;;;;;3.45;1.17;;;;;;;6.22;75.98;101903.88;5055154;28;20048;-51
2021/12/17 11:37:00;;;;;;;4.10;1.42;;;;;;;6.17;76.13;101912.50;5053948;28;20029;-50
2021/12/17 11:39:30;;;;;;;2.97;1.27;;;;;;;6.32;75.88;101913.69;5054999;28;20033;-53
2021/12/17 11:42:25;;;;;;;5.43;1.25;;;;;;;6.24;75.69;101923.09;5054091;28;20040;-51
2021/12/17 11:47:40;;;;;;;5.22;1.30;;;;;;;6.24;76.07;101923.09;5035141;28;20495;-49
2021/12/17 11:50:08;;;;;;;4.35;1.40;;;;;;;6.33;75.91;101918.03;5032700;28;20079;-50
2021/12/17 11:52:52;;;;;;;6.20;2.03;;;;;;;6.35;75.42;101911.16;5017325;28;20373;-50
2021/12/17 11:55:20;;;;;;;3.80;1.13;;;;;;;6.36;75.55;101908.53;5033537;28;20032;-51
2021/12/17 11:57:51;;;;;;;6.60;1.88;;;;;;;6.28;75.56;101917.09;5034879;28;20069;-52
2021/12/17 12:00:24;;;;;;;7.47;2.13;;;;;;;6.30;75.25;101916.25;5033381;28;20078;-50
2021/12/17 12:02:51;;;;;;;6.05;1.70;;;;;;;6.20;75.27;101919.53;5051297;28;20032;-51
2021/12/17 12:05:34;;;;;;;8.32;2.20;;;;;;;6.28;75.29;101927.53;5074843;28;20028;-50
2021/12/17 12:08:34;;;;;;;6.25;1.98;;;;;;;6.21;75.42;101923.03;5060142;28;20048;-51
2021/12/17 12:11:16;;;;;;;4.72;2.13;;;;;;;6.14;75.23;101924.59;5042469;28;20029;-52
2021/12/17 12:13:47;;;;;;;7.68;2.45;;;;;;;6.21;75.60;101920.41;5039645;28;20036;-51
2021/12/17 12:16:19;;;;;;;6.18;1.85;;;;;;;6.25;75.08;101914.41;5049536;28;20033;-50
2021/12/17 12:18:44;;;;;;;6.22;2.42;;;;;;;6.19;74.88;101943.00;5034547;28;20033;-49
2021/12/17 12:21:15;;;;;;;7.65;2.15;;;;;;;6.17;75.52;101925.56;5034311;28;20037;-51
2021/12/17 12:23:55;;;;;;;6.10;1.50;;;;;;;6.15;75.54;101924.66;5041187;28;20033;-49
2021/12/17 12:26:33;;;;;;;5.35;2.00;;;;;;;6.05;76.00;101924.41;5050056;28;20037;-51
2021/12/17 12:29:09;;;;;;;11.68;2.70;;;;;;;6.15;76.10;101940.31;5054025;28;20057;-49
2021/12/17 12:31:37;;;;;;;5.55;1.95;;;;;;;6.24;75.67;101937.00;5052747;28;20033;-52
2021/12/17 12:37:00;;;;;;;4.70;1.92;;;;;;;6.07;75.62;101930.56;5054298;28;20060;-54
2021/12/17 12:39:41;;;;;;;5.50;1.88;;;;;;;6.04;76.24;101941.81;5052646;28;20388;-52
2021/12/17 12:42:20;;;;;;;3.22;1.17;;;;;;;6.03;75.44;101936.56;5053768;28;20485;-54
2021/12/17 12:44:46;;;;;;;4.55;1.98;;;;;;;6.04;75.50;101947.03;5053722;28;20068;-50
2021/12/17 12:47:34;;;;;;;4.25;2.00;;;;;;;6.04;75.53;101951.38;5053701;28;20056;-52
2021/12/17 12:50:03;;;;;;;7.15;3.22;;;;;;;6.09;75.74;101955.84;5053544;28;20029;-52
2021/12/17 12:52:29;;;;;;;3.95;1.90;;;;;;;6.02;75.76;101966.97;5053672;28;20032;-51
2021/12/17 12:54:57;;;;;;;6.85;2.65;;;;;;;6.04;75.47;101957.47;5053761;28;20029;-52
2021/12/17 12:57:32;;;;;;;3.50;1.40;;;;;;;5.98;74.59;101967.75;5053730;28;20029;-50
2021/12/17 13:00:06;;;;;;;3.22;1.10;;;;;;;5.93;74.56;101978.09;5052614;28;20043;-51
2021/12/17 13:02:32;;;;;;;5.10;1.38;;;;;;;6.03;74.59;101957.44;5052067;28;20037;-49
2021/12/17 13:05:00;;;;;;;3.95;1.63;;;;;;;6.02;74.56;101969.59;5053433;28;20365;-52
2021/12/17 13:07:39;;;;;;;4.88;1.77;;;;;;;5.96;74.29;101973.81;5035802;28;20032;-48
2021/12/17 13:10:15;;;;;;;6.15;2.70;;;;;;;5.78;74.76;101969.00;5053668;28;20029;-51
2021/12/17 13:12:48;;;;;;;7.57;2.65;;;;;;;5.80;75.10;101982.97;5052670;28;20490;-50
2021/12/17 13:15:32;;;;;;;8.05;2.25;;;;;;;5.72;75.14;101984.53;5051986;28;20040;-50
2021/12/17 13:21:32;;;;;;;9.30;2.70;;;;;;;5.61;75.87;101982.53;5059903;28;20062;-54
2021/12/17 13:24:16;;;;;;;7.25;1.95;;;;;;;5.61;75.80;101982.53;5052242;28;20045;-51
2021/12/17 13:26:58;;;;;;;11.18;3.22;;;;;;;5.63;75.62;101993.88;5052290;28;20029;-51
2021/12/17 13:29:32;;;;;;;8.23;2.63;;;;;;;5.55;76.25;101989.34;5053409;28;20071;-50
2021/12/17 13:32:03;;;;;;;9.77;3.15;;;;;;;5.46;76.57;102002.13;5053071;28;20029;-53
2021/12/17 13:34:31;;;;;;;10.20;2.90;;;;;;;5.43;76.95;102013.38;5052022;28;20081;-51
2021/12/17 13:37:01;;;;;;;7.20;2.47;;;;;;;5.40;76.97;101997.66;5053362;28;20036;-51
2021/12/17 13:39:33;;;;;;;9.18;3.50;;;;;;;5.44;77.29;102009.91;5053577;28;20376;-48
2021/12/17 13:41:59;;;;;;;11.57;4.30;;;;;;;5.39;77.60;102015.03;5051854;28;20040;-49
2021/12/17 13:44:32;;;;;;;10.35;2.92;;;;;;;5.34;78.12;102007.91;5051910;28;20033;-51
2021/12/17 13:47:48;;;;;;;5.80;2.72;;;;;;;5.27;78.43;102014.72;5052062;28;20056;-54
2021/12/17 13:50:28;;;;;;;10.68;2.95;;;;;;;5.15;79.12;102009.19;5050504;28;20490;-51
2021/12/17 13:52:58;;;;;;;8.15;2.90;;;;;;;5.16;79.23;101996.19;5051471;28;20519;-51
2021/12/17 13:55:28;;;;;;;6.97;2.70;;;;;;;5.22;79.40;102002.38;5051726;28;20032;-50
2021/12/17 13:57:55;;;;;;;8.00;3.80;;;;;;;5.15;79.45;101999.63;5052857;28;20123;-50
2021/12/17 14:00:26;;;;;;;7.50;3.78;;;;;;;5.12;79.68;101996.94;5052689;28;20448;-50
2021/12/17 14:02:57;;;;;;;9.80;4.68;;;;;;;5.10;79.82;102006.41;5053119;28;20041;-52
2021/12/17 14:05:40;;;;;;;10.43;4.32;;;;;;;5.08;79.88;102007.25;5053037;28;20044;-50
2021/12/17 14:08:10;;;;;;;12.90;5.22;;;;;;;5.02;80.37;102005.34;5053064;28;20029;-52
2021/12/17 14:10:36;;;;;;;12.15;4.47;;;;;;;5.00;80.14;102016.56;5051875;28;20119;-55
2021/12/17 14:13:04;;;;;;;10.25;3.70;;;;;;;4.98;80.53;102003.50;5045869;28;20407;-49
2021/12/17 14:15:32;;;;;;;7.18;2.70;;;;;;;4.91;80.69;102012.00;5037138;28;20106;-48
2021/12/17 14:18:04;;;;;;;7.85;3.20;;;;;;;4.86;80.86;102003.16;5043308;28;20056;-51
2021/12/17 14:20:41;;;;;;;7.78;4.10;;;;;;;4.80;81.01;102024.72;5056264;28;20056;-50
2021/12/17 14:23:09;;;;;;;4.95;2.10;;;;;;;4.76;81.46;102024.59;5056333;28;20551;-50
2021/12/17 14:25:41;;;;;;;5.05;1.80;;;;;;;4.76;81.61;102032.41;5040586;28;20033;-49
2021/12/17 14:28:09;;;;;;;3.42;1.45;;;;;;;4.72;81.69;102030.56;5036416;28;20052;-51
2021/12/17 14:30:35;;;;;;;3.97;1.30;;;;;;;4.68;82.15;102025.25;5037540;28;20036;-48
2021/12/17 14:33:13;;;;;;;5.30;1.70;;;;;;;4.63;82.19;102015.56;5060096;28;20037;-54
2021/12/17 14:35:51;;;;;;;3.60;1.70;;;;;;;4.61;82.36;102014.63;5054682;28;20641;-51